Annette Island Airport Annette US
ICAO: PANT
IATA:
Category: Medium
Scheduled Services:

Elevation: 119 ft
TransAlt. 18000 ft.

Airport Communications:
ASOS:135.75
CTAF:122.9
KETCHIKAN RDO:122.4

PANT Zoom In..

Runways:

(A) RW 02 length 5709 ft width 150 ft
---- / hdg 20

(B) RW 12 length 7493 ft width 150 ft
---- / hdg 124

(C) RW 20 length 5709 ft width 150 ft
---- / hdg 200

(D) RW 30 length 7493 ft width 150 ft
---- / hdg 304

Location; PANT
Day. 23 / Time. 02.53 Zulu
* Altimeter: 30.26
* Temperature: 13° c. 55.4°f.
* Wind from: 150° Speed 05 kn.
Dewpoint: 13° c.
Visibility: 5 Statute Miles.
Clouds: Overcast 300 ft.
Conditions: Mist.

PANT 230253Z AUTO 15005KT 5SM BR OVC003 13/13 A3026 RMK SLP248 T01330128 58008 TSNO VIA AUTODIAL


Wind From 150°
Speed 05 kn.

 
 
jpsmedia.com for Web Design worldairports.se 2018   terms of use